Terminal Aerodrome Forecast
Issued by NWS

Home | Current Version | Previous Version | Text Only | Print | Product List | Glossary On
Versions: 1 2 3 4 5 6 7 8 9 10 11 12 13 14
493
FTUS44 KCRP 251120
TAFALI
TAF
KALI 251120Z 2512/2612 12004KT 6SM BR SCT020 BKN250
     FM251400 16008KT P6SM SCT025 BKN250
     FM252000 14012G18KT P6SM VCSH SCT050 BKN250
     FM260100 14008KT P6SM FEW020 SCT200=

USA.gov is the U.S. government's official web portal to all federal, state and local government web resources and services.